createdAt,value
2018-02-18T00:02:01.183Z,64.86
2018-02-18T00:04:30.656Z,65.54
2018-02-18T00:07:00.997Z,65.38
2018-02-18T00:09:30.962Z,65.45
2018-02-18T00:12:00.830Z,65.33
2018-02-18T00:14:30.810Z,65.13
2018-02-18T00:17:01.143Z,64.76
2018-02-18T00:19:31.214Z,64.77
2018-02-18T00:22:00.916Z,64.81
2018-02-18T00:24:30.648Z,65.06
2018-02-18T00:27:00.409Z,65.00
2018-02-18T00:29:29.807Z,64.86
2018-02-18T00:31:59.576Z,65.72
2018-02-18T00:34:29.422Z,66.14
2018-02-18T00:36:59.253Z,65.69
2018-02-18T00:39:29.420Z,65.33
2018-02-18T00:41:59.257Z,65.04
2018-02-18T00:44:28.651Z,64.85
2018-02-18T00:46:58.926Z,64.63
2018-02-18T00:49:28.772Z,64.87
2018-02-18T00:51:58.488Z,64.96
2018-02-18T00:54:28.548Z,64.78
2018-02-18T00:56:58.298Z,64.84
2018-02-18T00:59:28.143Z,65.33
2018-02-18T01:01:58.397Z,65.27
2018-02-18T01:04:28.322Z,65.21
2018-02-18T01:06:57.999Z,65.25
2018-02-18T01:09:28.039Z,65.89
2018-02-18T01:11:57.671Z,65.96
2018-02-18T01:14:27.507Z,65.81
2018-02-18T01:16:57.785Z,65.56
2018-02-18T01:19:27.491Z,66.09
2018-02-18T01:21:56.998Z,66.07
2018-02-18T01:24:27.136Z,65.88
2018-02-18T01:26:57.088Z,65.81
2018-02-18T01:29:26.974Z,65.60
2018-02-18T01:31:57.006Z,65.47
2018-02-18T01:34:27.380Z,65.44
2018-02-18T01:36:58.053Z,65.46
2018-02-18T01:39:28.222Z,66.17
2018-02-18T01:41:58.979Z,65.96
2018-02-18T01:44:28.476Z,65.66
2018-02-18T01:46:59.217Z,65.63
2018-02-18T01:49:28.943Z,65.42
2018-02-18T01:51:59.033Z,65.44
2018-02-18T01:54:29.245Z,64.88
2018-02-18T01:56:59.079Z,64.66
2018-02-18T01:59:29.408Z,64.99
2018-02-18T02:02:00.607Z,65.63
2018-02-18T02:04:30.254Z,65.64
2018-02-18T02:06:59.953Z,65.33
2018-02-18T02:09:30.448Z,65.11
2018-02-18T02:12:00.948Z,65.37
2018-02-18T02:14:31.401Z,65.04
2018-02-18T02:17:01.445Z,65.24
2018-02-18T02:19:31.558Z,65.31
2018-02-18T02:22:01.925Z,65.80
2018-02-18T02:24:31.968Z,65.30
2018-02-18T02:27:02.578Z,65.34
2018-02-18T02:29:32.598Z,65.93
2018-02-18T02:32:03.150Z,65.83
2018-02-18T02:34:32.790Z,65.75
2018-02-18T02:37:02.538Z,66.04
2018-02-18T02:39:32.692Z,66.70
2018-02-18T02:42:02.616Z,66.11
2018-02-18T02:44:32.357Z,66.07
2018-02-18T02:47:02.512Z,66.33
2018-02-18T02:49:32.123Z,67.30
2018-02-18T02:52:02.164Z,66.96
2018-02-18T02:54:31.798Z,66.79
2018-02-18T02:57:01.357Z,66.44
2018-02-18T02:59:31.692Z,65.99
2018-02-18T03:02:01.508Z,66.08
2018-02-18T03:04:32.319Z,65.91
2018-02-18T03:07:04.007Z,66.21
2018-02-18T03:09:34.581Z,66.12
2018-02-18T03:12:04.708Z,66.10
2018-02-18T03:14:34.741Z,65.94
2018-02-18T03:17:04.843Z,66.11
2018-02-18T03:19:34.338Z,66.42
2018-02-18T03:22:04.540Z,66.23
2018-02-18T03:24:34.238Z,65.92
2018-02-18T03:27:03.810Z,66.00
2018-02-18T03:29:33.813Z,65.87
2018-02-18T03:32:03.555Z,65.71
2018-02-18T03:34:33.511Z,65.89
2018-02-18T03:37:03.261Z,66.03
2018-02-18T03:39:33.156Z,66.06
2018-02-18T03:42:02.820Z,66.50
2018-02-18T03:44:32.869Z,66.66
2018-02-18T03:47:02.847Z,66.68
2018-02-18T03:49:32.818Z,66.90
2018-02-18T03:52:02.733Z,67.02
2018-02-18T03:54:32.567Z,67.03
2018-02-18T03:57:02.160Z,67.19
2018-02-18T03:59:32.007Z,67.35
2018-02-18T04:02:01.707Z,67.46
2018-02-18T04:04:31.263Z,67.25
2018-02-18T04:07:01.347Z,67.38
2018-02-18T04:09:31.035Z,67.28
2018-02-18T04:12:00.756Z,67.28
2018-02-18T04:14:30.817Z,67.49
2018-02-18T04:17:00.569Z,67.37
2018-02-18T04:19:30.445Z,67.16
2018-02-18T04:22:00.615Z,67.43
2018-02-18T04:24:30.064Z,67.11
2018-02-18T04:27:00.390Z,66.82
2018-02-18T04:29:30.769Z,66.74
2018-02-18T04:32:00.540Z,66.49
2018-02-18T04:34:30.441Z,66.75
2018-02-18T04:37:00.445Z,66.76
2018-02-18T04:39:30.323Z,66.60
2018-02-18T04:42:01.118Z,66.51
2018-02-18T04:44:31.022Z,66.44
2018-02-18T04:47:00.823Z,66.72
2018-02-18T04:49:30.641Z,66.81
2018-02-18T04:52:00.419Z,66.65
2018-02-18T04:54:30.105Z,66.62
2018-02-18T04:56:59.834Z,66.65
2018-02-18T04:59:30.190Z,66.52
2018-02-18T05:01:59.996Z,66.79
2018-02-18T05:04:29.562Z,66.95
2018-02-18T05:07:01.478Z,67.13
2018-02-18T05:09:31.529Z,67.13
2018-02-18T05:12:01.261Z,67.01
2018-02-18T05:14:31.423Z,67.10
2018-02-18T05:17:01.349Z,67.04
2018-02-18T05:19:30.911Z,67.15
2018-02-18T05:22:01.770Z,67.75
2018-02-18T05:24:31.483Z,68.02
2018-02-18T05:27:01.476Z,68.03
2018-02-18T05:29:31.523Z,67.94
2018-02-18T05:32:01.496Z,68.61
2018-02-18T05:34:31.248Z,68.87
2018-02-18T05:37:01.690Z,69.05
2018-02-18T05:39:31.232Z,69.39
2018-02-18T05:42:01.120Z,69.86
2018-02-18T05:44:30.810Z,70.63
2018-02-18T05:47:00.533Z,70.20
2018-02-18T05:49:30.934Z,70.07
2018-02-18T05:52:00.924Z,70.92
2018-02-18T05:54:30.670Z,71.22
2018-02-18T05:57:00.664Z,70.49
2018-02-18T05:59:30.470Z,70.48
2018-02-18T06:02:00.009Z,70.32
2018-02-18T06:04:30.219Z,70.75
2018-02-18T06:06:59.990Z,70.54
2018-02-18T06:09:29.812Z,70.51
2018-02-18T06:11:59.829Z,70.02
2018-02-18T06:14:29.573Z,69.46
2018-02-18T06:16:59.751Z,69.81
2018-02-18T06:19:29.420Z,69.97
2018-02-18T06:21:59.014Z,69.88
2018-02-18T06:24:29.089Z,70.00
2018-02-18T06:26:59.076Z,70.60
2018-02-18T06:29:29.117Z,70.15
2018-02-18T06:31:58.999Z,70.42
2018-02-18T06:34:28.992Z,69.98
2018-02-18T06:36:59.013Z,69.47
2018-02-18T06:39:28.767Z,69.32
2018-02-18T06:41:58.638Z,69.55
2018-02-18T06:44:28.585Z,69.34
2018-02-18T06:46:58.204Z,68.97
2018-02-18T06:49:27.925Z,68.85
2018-02-18T06:51:58.128Z,68.87
2018-02-18T06:54:28.198Z,68.67
2018-02-18T06:56:57.728Z,68.15
2018-02-18T06:59:27.434Z,68.05
2018-02-18T07:01:57.973Z,67.85
2018-02-18T07:04:27.656Z,67.39
2018-02-18T07:06:57.583Z,67.58
2018-02-18T07:09:27.298Z,67.43
2018-02-18T07:11:56.948Z,67.16
2018-02-18T07:14:27.064Z,67.21
2018-02-18T07:16:56.616Z,67.06
2018-02-18T07:19:26.967Z,66.61
2018-02-18T07:21:57.505Z,66.13
2018-02-18T07:24:27.217Z,65.97
2018-02-18T07:26:57.351Z,65.90
2018-02-18T07:29:27.372Z,65.50
2018-02-18T07:31:57.385Z,66.06
2018-02-18T07:34:27.054Z,66.65
2018-02-18T07:36:57.616Z,65.90
2018-02-18T07:39:28.315Z,65.75
2018-02-18T07:41:58.227Z,65.39
2018-02-18T07:44:28.549Z,64.83
2018-02-18T07:46:58.466Z,64.28
2018-02-18T07:49:28.419Z,64.04
2018-02-18T07:51:58.852Z,63.54
2018-02-18T07:54:28.566Z,63.62
2018-02-18T07:56:58.301Z,63.16
2018-02-18T07:59:28.569Z,62.83
2018-02-18T08:01:58.966Z,62.30
2018-02-18T08:04:28.679Z,61.85
2018-02-18T08:06:59.073Z,61.42
2018-02-18T08:09:28.857Z,61.03
2018-02-18T08:11:58.698Z,60.87
2018-02-18T08:14:29.114Z,60.54
2018-02-18T08:16:59.183Z,60.47
2018-02-18T08:19:28.942Z,59.77
2018-02-18T08:21:59.967Z,59.58
2018-02-18T08:24:29.872Z,59.02
2018-02-18T08:27:01.133Z,59.10
2018-02-18T08:29:31.673Z,58.65
2018-02-18T08:32:01.974Z,58.94
2018-02-18T08:34:31.453Z,59.05
2018-02-18T08:37:01.282Z,58.95
2018-02-18T08:39:31.018Z,58.75
2018-02-18T08:42:01.303Z,58.14
2018-02-18T08:44:31.331Z,57.57
2018-02-18T08:47:01.049Z,57.30
2018-02-18T08:49:35.797Z,57.31
2018-02-18T08:52:12.436Z,57.27
2018-02-18T08:54:44.929Z,56.81
2018-02-18T08:57:15.069Z,56.76
2018-02-18T08:59:47.301Z,56.09
2018-02-18T09:02:17.042Z,55.68
2018-02-18T09:04:46.715Z,56.32
2018-02-18T09:07:17.039Z,58.34
2018-02-18T09:09:47.424Z,57.33
2018-02-18T09:12:17.383Z,56.26
2018-02-18T09:14:47.618Z,55.90
2018-02-18T09:17:18.337Z,55.82
2018-02-18T09:19:48.973Z,55.28
2018-02-18T09:22:18.671Z,55.52
2018-02-18T09:24:48.531Z,54.72
2018-02-18T09:27:17.949Z,53.88
2018-02-18T09:29:47.901Z,53.86
2018-02-18T09:32:17.674Z,53.67
2018-02-18T09:34:47.169Z,53.47
2018-02-18T09:37:17.231Z,54.66
2018-02-18T09:39:47.521Z,53.80
2018-02-18T09:42:17.236Z,53.53
2018-02-18T09:44:47.873Z,53.43
2018-02-18T09:47:17.728Z,53.01
2018-02-18T09:49:47.179Z,53.29
2018-02-18T09:52:16.935Z,52.96
2018-02-18T09:54:46.394Z,52.88
2018-02-18T09:57:15.959Z,52.64
2018-02-18T09:59:45.650Z,52.62
2018-02-18T10:02:15.454Z,52.21
2018-02-18T10:04:45.161Z,51.97
2018-02-18T10:07:15.371Z,51.35
2018-02-18T10:09:45.508Z,50.90
2018-02-18T10:12:15.413Z,50.41
2018-02-18T10:14:46.258Z,50.74
2018-02-18T10:17:15.948Z,49.88
2018-02-18T10:19:45.962Z,50.63
2018-02-18T10:22:16.885Z,49.97
2018-02-18T10:24:47.035Z,49.52
2018-02-18T10:27:16.945Z,48.84
2018-02-18T10:29:48.123Z,48.08
2018-02-18T10:32:17.801Z,49.09
2018-02-18T10:34:47.647Z,49.91
2018-02-18T10:37:17.984Z,49.84
2018-02-18T10:39:47.537Z,49.86
2018-02-18T10:42:17.483Z,49.31
2018-02-18T10:44:47.690Z,49.36
2018-02-18T10:47:17.998Z,50.25
2018-02-18T10:49:47.793Z,50.90
2018-02-18T10:52:19.833Z,50.50
2018-02-18T10:54:50.315Z,51.65
2018-02-18T10:57:20.840Z,52.21
2018-02-18T10:59:50.677Z,51.60
2018-02-18T11:02:20.191Z,51.16
2018-02-18T11:04:50.101Z,50.35
2018-02-18T11:07:21.931Z,50.53
2018-02-18T11:09:52.796Z,51.03
2018-02-18T11:12:22.763Z,51.23
2018-02-18T11:14:52.754Z,51.40
2018-02-18T11:17:23.309Z,51.61
2018-02-18T11:19:54.454Z,51.30
2018-02-18T11:22:25.852Z,50.37
2018-02-18T11:24:55.739Z,48.85
2018-02-18T11:27:25.919Z,47.17
2018-02-18T11:29:55.688Z,47.19
2018-02-18T11:32:25.345Z,47.27
2018-02-18T11:34:54.770Z,45.81
2018-02-18T11:37:27.766Z,45.07
2018-02-18T11:39:57.843Z,44.54
2018-02-18T11:42:27.279Z,45.79
2018-02-18T11:44:59.980Z,46.47
2018-02-18T11:47:30.438Z,46.54
2018-02-18T11:50:01.763Z,46.48
2018-02-18T11:52:31.941Z,46.59
2018-02-18T11:55:02.104Z,47.16
2018-02-18T11:57:32.966Z,47.46
2018-02-18T12:00:04.609Z,46.59
2018-02-18T12:02:35.101Z,43.67
2018-02-18T12:05:04.543Z,43.50
2018-02-18T12:07:34.611Z,43.16
2018-02-18T12:10:04.950Z,42.50
2018-02-18T12:12:34.606Z,42.80
2018-02-18T12:15:04.882Z,42.35
2018-02-18T12:17:37.168Z,42.06
2018-02-18T12:20:13.351Z,41.82
2018-02-18T12:22:43.183Z,41.95
2018-02-18T12:25:12.654Z,41.74
2018-02-18T12:27:42.084Z,41.80
2018-02-18T12:30:11.965Z,41.29
2018-02-18T12:32:42.739Z,40.54
2018-02-18T12:35:13.298Z,38.69
2018-02-18T12:37:43.219Z,37.46
2018-02-18T12:40:13.061Z,36.66
2018-02-18T12:42:44.291Z,36.23
2018-02-18T12:45:14.778Z,37.01
2018-02-18T12:47:46.481Z,37.86
2018-02-18T12:50:16.859Z,37.17
2018-02-18T12:52:46.771Z,36.75
2018-02-18T12:55:16.404Z,36.36
2018-02-18T12:57:46.505Z,36.66
2018-02-18T13:00:22.924Z,36.61
2018-02-18T13:02:55.284Z,36.60
2018-02-18T13:05:35.321Z,36.64
2018-02-18T13:08:10.812Z,37.38
2018-02-18T13:10:49.137Z,38.27
2018-02-18T13:13:20.422Z,38.81
2018-02-18T13:15:54.865Z,38.79
2018-02-18T13:18:24.797Z,38.76
2018-02-18T13:20:54.614Z,38.33
2018-02-18T13:23:25.988Z,37.00
2018-02-18T13:26:01.757Z,35.62
2018-02-18T13:28:43.768Z,36.28
2018-02-18T13:31:16.447Z,36.91
2018-02-18T13:35:13.297Z,36.99
2018-02-18T13:37:44.069Z,37.13
2018-02-18T13:40:15.275Z,37.52
2018-02-18T13:42:44.831Z,38.34
2018-02-18T13:45:14.463Z,38.53
2018-02-18T13:49:50.522Z,38.70
2018-02-18T13:52:20.116Z,39.23
2018-02-18T13:54:50.187Z,38.51
2018-02-18T13:57:19.730Z,38.28
2018-02-18T13:59:50.788Z,38.47
2018-02-18T14:02:20.328Z,39.16
2018-02-18T14:04:50.051Z,39.69
2018-02-18T14:07:19.830Z,40.46
2018-02-18T14:09:49.777Z,40.29
2018-02-18T14:12:19.272Z,40.15
2018-02-18T14:14:48.684Z,39.76
2018-02-18T14:17:18.167Z,40.63
2018-02-18T14:19:48.118Z,41.69
2018-02-18T14:22:18.065Z,41.81
2018-02-18T14:24:47.703Z,42.33
2018-02-18T14:27:17.191Z,42.33
2018-02-18T14:29:47.795Z,41.73
2018-02-18T14:32:17.210Z,41.55
2018-02-18T14:34:46.798Z,41.36
2018-02-18T14:37:16.578Z,40.90
2018-02-18T14:39:46.043Z,40.60
2018-02-18T14:42:26.397Z,41.04
2018-02-18T14:47:12.321Z,40.91
2018-02-18T14:51:54.415Z,40.77
2018-02-18T14:54:42.153Z,42.05
2018-02-18T14:57:14.466Z,41.98
2018-02-18T14:59:43.926Z,42.78
2018-02-18T15:02:13.543Z,43.11
2018-02-18T15:04:43.672Z,43.78
2018-02-18T15:07:15.107Z,43.26
2018-02-18T15:09:44.536Z,43.49
2018-02-18T15:12:14.015Z,43.57
2018-02-18T15:14:44.248Z,44.28
2018-02-18T15:17:13.854Z,44.55
2018-02-18T15:19:43.253Z,44.19
2018-02-18T15:22:13.188Z,43.82
2018-02-18T15:24:43.255Z,43.89
2018-02-18T15:27:12.717Z,43.54
2018-02-18T15:29:42.558Z,43.12
2018-02-18T15:32:13.485Z,43.22
2018-02-18T15:34:50.896Z,43.26
2018-02-18T15:37:20.575Z,44.09
2018-02-18T15:39:50.931Z,45.30
2018-02-18T15:42:20.856Z,45.71
2018-02-18T15:44:50.433Z,46.74
2018-02-18T15:47:20.707Z,47.20
2018-02-18T15:49:50.452Z,47.31
2018-02-18T15:52:20.419Z,48.07
2018-02-18T15:54:52.007Z,48.15
2018-02-18T15:57:21.761Z,48.46
2018-02-18T15:59:52.842Z,48.59
2018-02-18T16:02:22.384Z,48.92
2018-02-18T16:04:52.456Z,49.19
2018-02-18T16:07:22.219Z,49.31
2018-02-18T16:09:52.022Z,49.26
2018-02-18T16:12:21.813Z,49.82
2018-02-18T16:14:52.483Z,50.08
2018-02-18T16:17:22.036Z,50.45
2018-02-18T16:20:04.645Z,50.63
2018-02-18T16:22:34.017Z,50.92
2018-02-18T16:25:03.723Z,51.15
2018-02-18T16:27:36.659Z,51.21
2018-02-18T16:30:06.162Z,51.51
2018-02-18T16:32:36.590Z,51.34
2018-02-18T16:35:06.085Z,51.55
2018-02-18T16:37:36.518Z,52.06
2018-02-18T16:40:10.245Z,52.37
2018-02-18T16:42:39.650Z,52.68
2018-02-18T16:45:09.366Z,52.79
2018-02-18T16:47:39.301Z,52.77
2018-02-18T16:50:08.867Z,52.57
2018-02-18T16:52:38.294Z,52.82
2018-02-18T16:55:07.834Z,53.18
2018-02-18T16:57:37.356Z,53.41
2018-02-18T17:00:07.363Z,53.52
2018-02-18T17:02:36.844Z,53.67
2018-02-18T17:05:06.246Z,53.78
2018-02-18T17:07:36.638Z,53.96
2018-02-18T17:10:06.465Z,54.27
2018-02-18T17:12:36.316Z,54.43
2018-02-18T17:15:06.593Z,54.49
2018-02-18T17:17:36.040Z,54.63
2018-02-18T17:20:05.941Z,55.28
2018-02-18T17:22:36.015Z,55.39
2018-02-18T17:25:06.528Z,55.37
2018-02-18T17:27:36.498Z,55.94
2018-02-18T17:30:06.811Z,55.84
2018-02-18T17:32:37.136Z,56.14
2018-02-18T17:35:08.355Z,56.17
2018-02-18T17:37:39.990Z,56.31
2018-02-18T17:40:09.543Z,56.61
2018-02-18T17:42:39.392Z,56.88
2018-02-18T17:45:09.111Z,57.06
2018-02-18T17:47:39.059Z,57.37
2018-02-18T17:50:08.884Z,57.49
2018-02-18T17:52:39.090Z,57.66
2018-02-18T17:55:08.992Z,57.91
2018-02-18T17:57:39.279Z,58.03
2018-02-18T18:00:09.404Z,58.32
2018-02-18T18:02:38.970Z,58.47
2018-02-18T18:05:09.038Z,58.46
2018-02-18T18:07:38.830Z,58.55
2018-02-18T18:10:08.275Z,59.06
2018-02-18T18:12:37.916Z,58.98
2018-02-18T18:15:07.764Z,58.81
2018-02-18T18:17:37.296Z,59.11
2018-02-18T18:20:06.748Z,59.39
2018-02-18T18:22:36.826Z,59.72
2018-02-18T18:25:06.334Z,60.12
2018-02-18T18:27:36.254Z,60.10
2018-02-18T18:30:06.763Z,60.27
2018-02-18T18:32:37.131Z,60.20
2018-02-18T18:35:06.446Z,60.71
2018-02-18T18:37:37.773Z,60.71
2018-02-18T18:40:08.233Z,60.74
2018-02-18T18:42:39.068Z,60.96
2018-02-18T18:45:09.008Z,61.37
2018-02-18T18:47:38.564Z,61.28
2018-02-18T18:50:08.111Z,61.56
2018-02-18T18:52:39.192Z,61.71
2018-02-18T18:55:08.719Z,62.02
2018-02-18T18:57:38.575Z,61.90
2018-02-18T19:00:11.477Z,61.99
2018-02-18T19:02:41.657Z,62.16
2018-02-18T19:05:12.236Z,62.13
2018-02-18T19:07:42.211Z,62.26
2018-02-18T19:10:12.832Z,62.45
2018-02-18T19:12:42.352Z,62.70
2018-02-18T19:15:12.493Z,62.76
2018-02-18T19:17:42.034Z,62.86
2018-02-18T19:20:11.829Z,63.07
2018-02-18T19:22:41.910Z,63.22
2018-02-18T19:25:12.670Z,63.43
2018-02-18T19:27:42.220Z,63.63
2018-02-18T19:30:12.323Z,63.62
2018-02-18T19:32:42.895Z,63.69
2018-02-18T19:35:15.908Z,63.83
2018-02-18T19:37:47.204Z,63.79
2018-02-18T19:40:18.189Z,63.93
2018-02-18T19:42:48.118Z,63.89
2018-02-18T19:45:19.134Z,64.18
2018-02-18T19:47:50.625Z,64.08
2018-02-18T19:50:20.113Z,64.17
2018-02-18T19:52:50.555Z,64.11
2018-02-18T19:55:20.040Z,64.07
2018-02-18T19:57:49.951Z,64.51
2018-02-18T20:00:19.847Z,64.66
2018-02-18T20:02:49.460Z,64.64
2018-02-18T20:05:18.930Z,64.83
2018-02-18T20:07:56.881Z,64.84
2018-02-18T20:10:26.507Z,64.82
2018-02-18T20:12:55.977Z,65.01
2018-02-18T20:15:25.848Z,65.21
2018-02-18T20:17:55.464Z,65.42
2018-02-18T20:20:25.439Z,65.43
2018-02-18T20:22:55.447Z,65.36
2018-02-18T20:25:25.125Z,65.61
2018-02-18T20:27:55.662Z,65.63
2018-02-18T20:30:25.581Z,65.68
2018-02-18T20:32:56.101Z,65.87
2018-02-18T20:35:25.671Z,65.72
2018-02-18T20:37:55.499Z,65.83
2018-02-18T20:40:25.094Z,65.98
2018-02-18T20:42:54.679Z,65.96
2018-02-18T20:45:25.016Z,66.06
2018-02-18T20:47:54.604Z,66.12
2018-02-18T20:50:24.402Z,66.36
2018-02-18T20:52:53.934Z,66.53
2018-02-18T20:55:23.597Z,66.58
2018-02-18T20:57:53.865Z,66.66
2018-02-18T21:00:23.536Z,66.65
2018-02-18T21:02:52.973Z,66.77
2018-02-18T21:05:22.645Z,66.80
2018-02-18T21:07:52.157Z,66.92
2018-02-18T21:10:22.057Z,67.08
2018-02-18T21:12:51.557Z,67.30
2018-02-18T21:15:21.284Z,67.42
2018-02-18T21:17:51.276Z,67.61
2018-02-18T21:20:21.519Z,67.65
2018-02-18T21:22:51.118Z,67.68
2018-02-18T21:25:20.899Z,67.83
2018-02-18T21:27:50.450Z,67.93
2018-02-18T21:30:19.947Z,67.96
2018-02-18T21:32:49.859Z,67.95
2018-02-18T21:35:19.322Z,67.93
2018-02-18T21:37:48.880Z,67.94
2018-02-18T21:40:22.384Z,67.90
2018-02-18T21:42:52.583Z,67.94
2018-02-18T21:45:22.077Z,67.94
2018-02-18T21:47:51.891Z,68.04
2018-02-18T21:50:21.330Z,68.09
2018-02-18T21:52:54.423Z,68.22
2018-02-18T21:55:24.236Z,68.30
2018-02-18T21:57:54.414Z,68.39
2018-02-18T22:00:24.111Z,68.46
2018-02-18T22:02:54.623Z,68.40
2018-02-18T22:05:24.117Z,68.41
2018-02-18T22:07:53.633Z,68.45
2018-02-18T22:10:23.141Z,68.55
2018-02-18T22:12:52.713Z,68.58
2018-02-18T22:15:23.084Z,68.55
2018-02-18T22:17:52.890Z,68.77
2018-02-18T22:20:22.859Z,68.83
2018-02-18T22:22:52.451Z,68.95
2018-02-18T22:25:22.584Z,69.11
2018-02-18T22:27:52.083Z,69.08
2018-02-18T22:30:22.578Z,69.19
2018-02-18T22:32:52.628Z,68.98
2018-02-18T22:35:22.883Z,68.74
2018-02-18T22:37:52.592Z,68.15
2018-02-18T22:40:22.376Z,67.70
2018-02-18T22:42:52.448Z,67.47
2018-02-18T22:45:21.929Z,67.26
2018-02-18T22:47:52.007Z,67.42
2018-02-18T22:50:21.715Z,67.49
2018-02-18T22:52:51.780Z,67.42
2018-02-18T22:55:22.799Z,67.37
2018-02-18T22:57:53.065Z,67.40
2018-02-18T23:00:22.770Z,67.50
2018-02-18T23:02:52.702Z,67.44
2018-02-18T23:05:27.237Z,67.41
2018-02-18T23:07:57.478Z,67.35
2018-02-18T23:10:27.268Z,67.36
2018-02-18T23:12:57.142Z,67.20
2018-02-18T23:15:26.846Z,66.89
2018-02-18T23:17:56.842Z,66.65
2018-02-18T23:20:26.779Z,66.58
2018-02-18T23:22:56.351Z,66.52
2018-02-18T23:25:26.356Z,66.49
2018-02-18T23:27:56.381Z,66.39
2018-02-18T23:30:25.878Z,66.28
2018-02-18T23:32:55.576Z,66.21
2018-02-18T23:35:25.525Z,66.12
2018-02-18T23:37:54.982Z,66.11
2018-02-18T23:40:24.380Z,66.16
2018-02-18T23:42:54.178Z,66.27
2018-02-18T23:45:23.909Z,66.29
2018-02-18T23:47:53.874Z,66.33
2018-02-18T23:50:23.483Z,66.39
2018-02-18T23:52:53.510Z,66.68
2018-02-18T23:55:23.469Z,66.56
2018-02-18T23:57:53.870Z,66.49
